Time;durP1;ratioP1;P1;durP2;ratioP2;P2;SDS_P1;SDS_P2;PMS_P1;PMS_P2;Temp;Humidity;BMP_temperature;BMP_pressure;BME280_temperature;BME280_humidity;BME280_pressure;Samples;Min_cycle;Max_cycle;Signal;HPM_P1;HPM_P2
2023/05/13 00:01:44;;;;;;;2.20;2.10;;;;;;;;;;5083255;28;20391;-69
2023/05/13 00:04:10;;;;;;;2.10;2.00;;;;;;;;;;5083244;28;20200;-69
2023/05/13 00:06:37;;;;;;;3.85;2.05;;;;;;;;;;5083021;28;20197;-69
2023/05/13 00:09:04;;;;;;;2.63;2.42;;;;;;;;;;5083491;28;20196;-69
2023/05/13 00:11:30;;;;;;;2.50;2.40;;;;;;;;;;5082894;28;20548;-69
2023/05/13 00:13:57;;;;;;;2.50;2.30;;;;;;;;;;5082895;28;20441;-69
2023/05/13 00:16:26;;;;;;;2.33;2.22;;;;;;;;;;5082855;28;20541;-69
2023/05/13 00:18:52;;;;;;;2.97;2.42;;;;;;;;;;5082884;28;20263;-69
2023/05/13 00:21:19;;;;;;;2.97;2.67;;;;;;;;;;5082781;28;20196;-69
2023/05/13 00:23:45;;;;;;;3.28;2.35;;;;;;;;;;5082733;28;20201;-69
2023/05/13 00:26:11;;;;;;;2.28;2.13;;;;;;;;;;5082775;28;20505;-69
2023/05/13 00:28:37;;;;;;;2.42;2.22;;;;;;;;;;5082520;28;20222;-69
2023/05/13 00:31:04;;;;;;;2.65;2.30;;;;;;;;;;5082375;28;20598;-69
2023/05/13 00:33:31;;;;;;;2.63;2.42;;;;;;;;;;5082620;28;20197;-69
2023/05/13 00:35:57;;;;;;;2.15;2.05;;;;;;;;;;5082775;28;20200;-69
2023/05/13 00:38:24;;;;;;;2.53;2.33;;;;;;;;;;5082571;28;20430;-69
2023/05/13 00:40:50;;;;;;;2.60;2.40;;;;;;;;;;5082252;28;20515;-69
2023/05/13 00:43:16;;;;;;;3.53;2.22;;;;;;;;;;5082920;28;20488;-69
2023/05/13 00:45:43;;;;;;;2.50;2.28;;;;;;;;;;5083216;28;20200;-69
2023/05/13 00:48:09;;;;;;;2.40;2.20;;;;;;;;;;5082640;28;20299;-69
2023/05/13 00:50:37;;;;;;;3.00;2.50;;;;;;;;;;5081686;28;20216;-69
2023/05/13 00:53:03;;;;;;;2.50;2.40;;;;;;;;;;5082443;28;20534;-69
2023/05/13 00:55:30;;;;;;;2.22;2.00;;;;;;;;;;5082269;28;20197;-69
2023/05/13 00:57:56;;;;;;;2.60;2.22;;;;;;;;;;5082511;28;20239;-69
2023/05/13 01:00:22;;;;;;;2.80;2.60;;;;;;;;;;5082267;28;20238;-69
2023/05/13 01:02:52;;;;;;;2.63;2.42;;;;;;;;;;5082354;28;20204;-69
2023/05/13 01:05:20;;;;;;;2.53;2.40;;;;;;;;;;5082786;28;20201;-69
2023/05/13 01:07:55;;;;;;;2.45;2.33;;;;;;;;;;5082452;28;20207;-68
2023/05/13 01:10:24;;;;;;;2.13;2.03;;;;;;;;;;5081536;28;20269;-68
2023/05/13 01:12:53;;;;;;;2.20;2.10;;;;;;;;;;5082198;28;20504;-68
2023/05/13 01:15:21;;;;;;;2.00;1.90;;;;;;;;;;5081982;28;20250;-68
2023/05/13 01:17:50;;;;;;;3.17;2.00;;;;;;;;;;5081907;28;20262;-68
2023/05/13 01:20:18;;;;;;;2.60;2.50;;;;;;;;;;5081696;28;20392;-68
2023/05/13 01:22:46;;;;;;;2.42;2.33;;;;;;;;;;5081937;28;20435;-68
2023/05/13 01:25:12;;;;;;;2.47;2.15;;;;;;;;;;5082488;28;20267;-68
2023/05/13 01:27:38;;;;;;;2.20;2.10;;;;;;;;;;5081902;28;20262;-68
2023/05/13 01:30:05;;;;;;;2.28;2.10;;;;;;;;;;5081761;28;20504;-68
2023/05/13 01:32:32;;;;;;;2.38;1.95;;;;;;;;;;5082040;28;20383;-68
2023/05/13 01:34:59;;;;;;;2.70;2.60;;;;;;;;;;5081970;28;20200;-68
2023/05/13 01:37:25;;;;;;;2.80;2.70;;;;;;;;;;5081751;28;20234;-68
2023/05/13 01:39:53;;;;;;;2.42;2.42;;;;;;;;;;5081775;28;20196;-68
2023/05/13 01:42:19;;;;;;;4.68;2.40;;;;;;;;;;5081723;28;20204;-68
2023/05/13 01:44:46;;;;;;;2.47;2.38;;;;;;;;;;5081636;28;20200;-68
2023/05/13 01:47:12;;;;;;;2.67;2.45;;;;;;;;;;5081681;28;20201;-68
2023/05/13 01:49:38;;;;;;;5.13;2.40;;;;;;;;;;5081634;28;20197;-68
2023/05/13 01:52:04;;;;;;;2.60;2.50;;;;;;;;;;5081439;28;20216;-68
2023/05/13 01:54:31;;;;;;;5.35;2.00;;;;;;;;;;5081632;28;20196;-68
2023/05/13 01:56:58;;;;;;;2.28;2.17;;;;;;;;;;5081619;28;20196;-68
2023/05/13 01:59:25;;;;;;;2.40;2.30;;;;;;;;;;5081370;28;20380;-68
2023/05/13 02:01:51;;;;;;;2.05;1.95;;;;;;;;;;5081601;28;20258;-68
2023/05/13 02:04:17;;;;;;;2.35;2.13;;;;;;;;;;5085645;28;20196;-68
2023/05/13 02:06:43;;;;;;;2.08;1.98;;;;;;;;;;5085516;28;20242;-68
2023/05/13 02:09:10;;;;;;;2.70;2.10;;;;;;;;;;5085229;28;20196;-68
2023/05/13 02:11:36;;;;;;;2.22;2.13;;;;;;;;;;5085029;28;20239;-68
2023/05/13 02:14:04;;;;;;;3.92;2.33;;;;;;;;;;5085413;28;20391;-68
2023/05/13 02:16:31;;;;;;;2.22;2.00;;;;;;;;;;5085405;28;20371;-68
2023/05/13 02:18:57;;;;;;;2.13;2.10;;;;;;;;;;5085334;28;20516;-68
2023/05/13 02:21:23;;;;;;;1.98;1.98;;;;;;;;;;5085066;28;20201;-68
2023/05/13 02:23:49;;;;;;;3.55;1.92;;;;;;;;;;5085318;28;20242;-68
2023/05/13 02:26:16;;;;;;;3.60;1.83;;;;;;;;;;5085575;28;20433;-68
2023/05/13 02:28:42;;;;;;;4.97;1.90;;;;;;;;;;5085213;28;20262;-68
2023/05/13 02:31:09;;;;;;;2.70;1.77;;;;;;;;;;5084748;28;20220;-68
2023/05/13 02:33:36;;;;;;;2.00;1.88;;;;;;;;;;5084964;28;20250;-68
2023/05/13 02:36:02;;;;;;;2.08;1.70;;;;;;;;;;5084999;28;20200;-68
2023/05/13 02:38:28;;;;;;;1.80;1.80;;;;;;;;;;5084988;28;20439;-68
2023/05/13 02:40:54;;;;;;;2.10;2.00;;;;;;;;;;5084514;28;20431;-68
2023/05/13 02:43:22;;;;;;;2.08;2.03;;;;;;;;;;5085214;28;20364;-68
2023/05/13 02:45:48;;;;;;;1.75;1.65;;;;;;;;;;5084555;28;20205;-68
2023/05/13 02:48:16;;;;;;;3.05;1.67;;;;;;;;;;5084642;28;20196;-68
2023/05/13 02:50:42;;;;;;;2.67;1.98;;;;;;;;;;5084176;28;20262;-68
2023/05/13 02:53:08;;;;;;;2.22;1.88;;;;;;;;;;5085006;28;20253;-68
2023/05/13 02:55:34;;;;;;;1.65;1.65;;;;;;;;;;5084396;28;20196;-68
2023/05/13 02:58:01;;;;;;;1.80;1.80;;;;;;;;;;5084745;28;20197;-68
2023/05/13 03:00:27;;;;;;;2.67;1.80;;;;;;;;;;5084408;28;20197;-69
2023/05/13 03:02:53;;;;;;;2.75;1.58;;;;;;;;;;5084527;28;20250;-69
2023/05/13 03:05:21;;;;;;;1.83;1.73;;;;;;;;;;5084223;28;20426;-69
2023/05/13 03:07:47;;;;;;;1.75;1.65;;;;;;;;;;5084408;28;20557;-69
2023/05/13 03:10:13;;;;;;;2.75;1.85;;;;;;;;;;5084031;28;20196;-69
2023/05/13 03:12:40;;;;;;;1.80;1.80;;;;;;;;;;5084024;28;20220;-69
2023/05/13 03:15:06;;;;;;;6.18;1.70;;;;;;;;;;5083224;28;20524;-69
2023/05/13 03:17:33;;;;;;;2.10;2.00;;;;;;;;;;5084216;28;20204;-69
2023/05/13 03:19:59;;;;;;;1.60;1.60;;;;;;;;;;5084189;28;20516;-69
2023/05/13 03:22:27;;;;;;;1.60;1.55;;;;;;;;;;5083895;28;20267;-69
2023/05/13 03:24:53;;;;;;;5.57;1.60;;;;;;;;;;5083936;28;20200;-69
2023/05/13 03:27:19;;;;;;;1.60;1.60;;;;;;;;;;5084136;28;20467;-69
2023/05/13 03:29:46;;;;;;;1.70;1.65;;;;;;;;;;5083915;28;20223;-69
2023/05/13 03:32:12;;;;;;;2.20;2.10;;;;;;;;;;5083700;28;20220;-69
2023/05/13 03:34:38;;;;;;;2.10;2.00;;;;;;;;;;5083849;28;20196;-69
2023/05/13 03:37:05;;;;;;;1.85;1.85;;;;;;;;;;5083815;28;20196;-69
2023/05/13 03:39:32;;;;;;;2.60;1.95;;;;;;;;;;5083884;28;20251;-69
2023/05/13 03:41:58;;;;;;;1.85;1.77;;;;;;;;;;5083757;28;20196;-68
2023/05/13 03:44:25;;;;;;;2.50;1.80;;;;;;;;;;5083847;28;20504;-68
2023/05/13 03:46:51;;;;;;;2.22;2.17;;;;;;;;;;5083718;28;20196;-68
2023/05/13 03:49:17;;;;;;;1.80;1.52;;;;;;;;;;5083341;28;20488;-68
2023/05/13 03:51:44;;;;;;;3.35;2.03;;;;;;;;;;5083274;28;20219;-68
2023/05/13 03:54:10;;;;;;;1.75;1.75;;;;;;;;;;5083540;28;20208;-68
2023/05/13 03:56:37;;;;;;;1.77;1.73;;;;;;;;;;5083712;28;20200;-68
2023/05/13 03:59:04;;;;;;;3.13;1.60;;;;;;;;;;5083779;28;20241;-68
2023/05/13 04:01:30;;;;;;;1.67;1.58;;;;;;;;;;5083263;28;20495;-68
2023/05/13 04:03:56;;;;;;;2.33;2.13;;;;;;;;;;5083200;28;20232;-69
2023/05/13 04:06:22;;;;;;;1.85;1.85;;;;;;;;;;5083111;28;20427;-70
2023/05/13 04:08:50;;;;;;;3.33;2.17;;;;;;;;;;5083223;28;20242;-69
2023/05/13 04:11:16;;;;;;;2.15;1.95;;;;;;;;;;5082913;28;20438;-70
2023/05/13 04:13:44;;;;;;;1.83;1.73;;;;;;;;;;5083015;28;20511;-70
2023/05/13 04:16:11;;;;;;;1.85;1.75;;;;;;;;;;5083087;28;20226;-72
2023/05/13 04:18:37;;;;;;;2.03;1.92;;;;;;;;;;5082970;28;20196;-72
2023/05/13 04:21:06;;;;;;;1.90;1.80;;;;;;;;;;5082642;28;20546;-72
2023/05/13 04:23:32;;;;;;;4.47;2.25;;;;;;;;;;5083156;28;20197;-72
2023/05/13 04:25:58;;;;;;;2.10;1.98;;;;;;;;;;5083008;28;20484;-71
2023/05/13 04:28:24;;;;;;;5.03;2.00;;;;;;;;;;5082683;28;20596;-71
2023/05/13 04:30:53;;;;;;;4.00;2.00;;;;;;;;;;5082443;28;20238;-70
2023/05/13 04:33:19;;;;;;;1.83;1.80;;;;;;;;;;5083118;28;20466;-70
2023/05/13 04:35:46;;;;;;;1.85;1.75;;;;;;;;;;5082434;28;20384;-71
2023/05/13 04:38:12;;;;;;;5.60;2.13;;;;;;;;;;5082866;28;20271;-71
2023/05/13 04:40:38;;;;;;;1.90;1.80;;;;;;;;;;5082416;28;20196;-71
2023/05/13 04:43:04;;;;;;;2.10;1.88;;;;;;;;;;5082681;28;20200;-71
2023/05/13 04:45:31;;;;;;;2.67;2.45;;;;;;;;;;5082470;28;20242;-71
2023/05/13 04:47:59;;;;;;;2.28;2.17;;;;;;;;;;5082302;28;20218;-71
2023/05/13 04:50:25;;;;;;;2.28;2.28;;;;;;;;;;5082081;28;20200;-71
2023/05/13 04:52:53;;;;;;;2.70;2.20;;;;;;;;;;5082222;28;20224;-71
2023/05/13 04:55:19;;;;;;;2.28;2.10;;;;;;;;;;5082313;28;20211;-71
2023/05/13 04:57:46;;;;;;;2.00;1.90;;;;;;;;;;5082276;28;20204;-71
2023/05/13 05:00:12;;;;;;;2.15;2.10;;;;;;;;;;5082252;28;20377;-71
2023/05/13 05:02:39;;;;;;;2.25;2.13;;;;;;;;;;5082055;28;20193;-71
2023/05/13 05:05:07;;;;;;;5.35;2.47;;;;;;;;;;5080870;28;20197;-71
2023/05/13 05:07:33;;;;;;;2.30;2.10;;;;;;;;;;5082027;28;20262;-71
2023/05/13 05:10:00;;;;;;;2.22;2.13;;;;;;;;;;5082262;28;20242;-71
2023/05/13 05:12:26;;;;;;;3.03;2.25;;;;;;;;;;5082039;28;20258;-71
2023/05/13 05:14:52;;;;;;;2.58;2.38;;;;;;;;;;5081987;28;20204;-71
2023/05/13 05:17:18;;;;;;;3.05;2.63;;;;;;;;;;5081883;28;20196;-70
2023/05/13 05:19:45;;;;;;;2.53;2.42;;;;;;;;;;5082208;28;20196;-70
2023/05/13 05:22:12;;;;;;;2.78;2.13;;;;;;;;;;5082063;28;20197;-70
2023/05/13 05:24:38;;;;;;;3.22;2.47;;;;;;;;;;5081934;28;20273;-70
2023/05/13 05:27:05;;;;;;;6.63;1.90;;;;;;;;;;5081731;28;20259;-70
2023/05/13 05:29:32;;;;;;;3.67;2.38;;;;;;;;;;5081950;28;20206;-70
2023/05/13 05:31:58;;;;;;;2.30;2.20;;;;;;;;;;5081810;28;20232;-70
2023/05/13 05:34:24;;;;;;;2.45;2.25;;;;;;;;;;5081832;28;20196;-71
2023/05/13 05:36:50;;;;;;;2.78;2.33;;;;;;;;;;5082850;28;20220;-71
2023/05/13 05:39:18;;;;;;;3.13;2.85;;;;;;;;;;5088596;28;20426;-71
2023/05/13 05:41:45;;;;;;;2.90;2.70;;;;;;;;;;5088620;28;20369;-71
2023/05/13 05:44:13;;;;;;;2.38;2.35;;;;;;;;;;5088704;28;20196;-71
2023/05/13 05:46:39;;;;;;;2.55;2.30;;;;;;;;;;5088447;28;20199;-71
2023/05/13 05:49:07;;;;;;;2.80;2.60;;;;;;;;;;5088617;28;20196;-71
2023/05/13 05:51:33;;;;;;;2.70;2.45;;;;;;;;;;5088327;28;20280;-71
2023/05/13 05:53:59;;;;;;;3.78;2.22;;;;;;;;;;5088587;28;20200;-71
2023/05/13 05:56:27;;;;;;;2.55;2.40;;;;;;;;;;5088415;28;20391;-71
2023/05/13 05:58:53;;;;;;;3.10;2.92;;;;;;;;;;5088326;28;20200;-71
2023/05/13 06:01:19;;;;;;;2.97;2.80;;;;;;;;;;5088257;28;20258;-71
2023/05/13 06:03:45;;;;;;;2.40;2.20;;;;;;;;;;5088369;28;20196;-71
2023/05/13 06:06:12;;;;;;;2.63;2.47;;;;;;;;;;5088253;28;20222;-71
2023/05/13 06:08:38;;;;;;;2.42;2.42;;;;;;;;;;5088249;28;20197;-71
2023/05/13 06:11:04;;;;;;;3.70;2.58;;;;;;;;;;5088237;28;20488;-71
2023/05/13 06:13:32;;;;;;;2.95;2.53;;;;;;;;;;5087888;28;20220;-71
2023/05/13 06:15:58;;;;;;;3.63;3.00;;;;;;;;;;5088227;28;20200;-71
2023/05/13 06:18:25;;;;;;;2.88;2.53;;;;;;;;;;5088307;28;20446;-71
2023/05/13 06:20:51;;;;;;;2.90;2.75;;;;;;;;;;5088099;28;20499;-71
2023/05/13 06:23:17;;;;;;;3.45;3.22;;;;;;;;;;5087987;28;20193;-71
2023/05/13 06:25:44;;;;;;;4.75;3.10;;;;;;;;;;5088093;28;20242;-71
2023/05/13 06:28:11;;;;;;;3.13;2.92;;;;;;;;;;5087947;28;20595;-72
2023/05/13 06:30:39;;;;;;;3.00;2.67;;;;;;;;;;5088125;28;20204;-72
2023/05/13 06:33:07;;;;;;;2.90;2.70;;;;;;;;;;5088157;28;20215;-72
2023/05/13 06:35:33;;;;;;;2.80;2.60;;;;;;;;;;5088209;28;20444;-72
2023/05/13 06:37:59;;;;;;;3.20;2.65;;;;;;;;;;5087975;28;20196;-72
2023/05/13 06:40:25;;;;;;;3.13;2.92;;;;;;;;;;5087737;28;20514;-72
2023/05/13 06:42:52;;;;;;;4.80;2.50;;;;;;;;;;5087812;28;20411;-72
2023/05/13 06:45:21;;;;;;;3.10;2.90;;;;;;;;;;5088028;28;20250;-72
2023/05/13 06:47:50;;;;;;;2.90;2.70;;;;;;;;;;5088382;28;20197;-72
2023/05/13 06:50:16;;;;;;;3.03;2.83;;;;;;;;;;5083938;28;20197;-72
2023/05/13 06:52:42;;;;;;;3.00;2.90;;;;;;;;;;5084868;28;20234;-73
2023/05/13 06:55:09;;;;;;;3.22;2.60;;;;;;;;;;5084898;28;20196;-72
2023/05/13 06:57:36;;;;;;;3.90;2.88;;;;;;;;;;5085050;28;20232;-74
2023/05/13 07:00:02;;;;;;;3.70;2.85;;;;;;;;;;5085192;28;20205;-72
2023/05/13 07:02:29;;;;;;;2.75;2.55;;;;;;;;;;5084911;28;20238;-73
2023/05/13 07:04:56;;;;;;;3.17;2.83;;;;;;;;;;5085089;28;20200;-72
2023/05/13 07:07:23;;;;;;;2.67;2.47;;;;;;;;;;5085249;28;20200;-73
2023/05/13 07:09:49;;;;;;;5.15;3.15;;;;;;;;;;5085126;28;20197;-73
2023/05/13 07:12:15;;;;;;;2.67;2.45;;;;;;;;;;5084846;28;20394;-73
2023/05/13 07:14:44;;;;;;;2.72;2.58;;;;;;;;;;5084918;28;20442;-74
2023/05/13 07:17:10;;;;;;;3.70;3.50;;;;;;;;;;5085105;28;20268;-74
2023/05/13 07:19:36;;;;;;;4.28;3.35;;;;;;;;;;5085107;28;20219;-74
2023/05/13 07:22:04;;;;;;;3.78;3.42;;;;;;;;;;5084696;28;20222;-75
2023/05/13 07:24:30;;;;;;;3.90;3.60;;;;;;;;;;5085093;28;20436;-74
2023/05/13 07:26:56;;;;;;;6.50;3.97;;;;;;;;;;5083359;28;20438;-63
2023/05/13 07:29:22;;;;;;;4.80;3.90;;;;;;;;;;5084254;28;20196;-63
2023/05/13 07:31:49;;;;;;;4.43;4.13;;;;;;;;;;5084036;28;20234;-63
2023/05/13 07:34:15;;;;;;;6.20;3.88;;;;;;;;;;5084509;28;20204;-64
2023/05/13 07:36:41;;;;;;;3.78;3.40;;;;;;;;;;5084008;28;20267;-62
2023/05/13 07:39:09;;;;;;;4.30;3.95;;;;;;;;;;5084032;28;20230;-62
2023/05/13 07:41:36;;;;;;;3.85;3.35;;;;;;;;;;5084037;28;20234;-63
2023/05/13 07:44:02;;;;;;;4.60;3.55;;;;;;;;;;5084132;28;20196;-63
2023/05/13 07:46:28;;;;;;;7.43;3.67;;;;;;;;;;5084095;28;20200;-63
2023/05/13 07:48:54;;;;;;;4.22;3.88;;;;;;;;;;5084103;28;20234;-64
2023/05/13 07:51:21;;;;;;;4.35;3.58;;;;;;;;;;5083677;28;20196;-63
2023/05/13 07:53:47;;;;;;;3.70;3.40;;;;;;;;;;5083931;28;20232;-63
2023/05/13 07:56:15;;;;;;;4.03;3.67;;;;;;;;;;5083698;28;20203;-63
2023/05/13 07:58:41;;;;;;;3.00;2.90;;;;;;;;;;5083846;28;20504;-64
2023/05/13 08:01:07;;;;;;;3.28;2.97;;;;;;;;;;5083294;28;20500;-64
2023/05/13 08:03:34;;;;;;;3.25;2.35;;;;;;;;;;5083786;28;20237;-63
2023/05/13 08:06:00;;;;;;;5.90;3.15;;;;;;;;;;5083268;28;20200;-63
2023/05/13 08:08:26;;;;;;;3.78;2.58;;;;;;;;;;5083801;28;20500;-64
2023/05/13 08:10:52;;;;;;;3.05;2.85;;;;;;;;;;5083283;28;20203;-63
2023/05/13 08:13:20;;;;;;;2.75;2.55;;;;;;;;;;5083196;28;20559;-63
2023/05/13 08:15:46;;;;;;;2.95;2.78;;;;;;;;;;5083270;28;20267;-63
2023/05/13 08:18:13;;;;;;;3.35;3.10;;;;;;;;;;5083156;28;20503;-63
2023/05/13 08:20:39;;;;;;;3.00;2.80;;;;;;;;;;5083081;28;20500;-63
2023/05/13 08:23:06;;;;;;;3.67;3.38;;;;;;;;;;5083199;28;20221;-63
2023/05/13 08:25:32;;;;;;;3.67;3.22;;;;;;;;;;5083601;28;20204;-63
2023/05/13 08:27:58;;;;;;;3.25;3.10;;;;;;;;;;5083435;28;20220;-63
2023/05/13 08:30:26;;;;;;;3.25;2.80;;;;;;;;;;5082905;28;20201;-63
2023/05/13 08:32:52;;;;;;;3.40;3.10;;;;;;;;;;5083041;28;20217;-63
2023/05/13 08:35:18;;;;;;;3.28;3.03;;;;;;;;;;5083374;28;20199;-63
2023/05/13 08:37:45;;;;;;;3.90;3.38;;;;;;;;;;5083226;28;20207;-63
2023/05/13 08:40:11;;;;;;;3.83;3.25;;;;;;;;;;5082969;28;20219;-63
2023/05/13 08:42:38;;;;;;;3.15;2.95;;;;;;;;;;5082381;28;20201;-63
2023/05/13 08:45:06;;;;;;;3.45;3.10;;;;;;;;;;5082671;28;20203;-63
2023/05/13 08:47:39;;;;;;;3.75;3.45;;;;;;;;;;5082767;28;20202;-63
2023/05/13 08:50:06;;;;;;;3.17;3.08;;;;;;;;;;5082948;28;20512;-63
2023/05/13 08:52:32;;;;;;;3.30;3.08;;;;;;;;;;5082532;28;20216;-63
2023/05/13 08:54:59;;;;;;;3.38;3.17;;;;;;;;;;5082750;28;20196;-63
2023/05/13 08:57:25;;;;;;;5.72;3.00;;;;;;;;;;5082512;28;20425;-63
2023/05/13 08:59:51;;;;;;;3.70;3.40;;;;;;;;;;5082423;28;20258;-63
2023/05/13 09:02:18;;;;;;;5.13;2.60;;;;;;;;;;5082279;28;20201;-63
2023/05/13 09:04:46;;;;;;;3.17;2.80;;;;;;;;;;5082772;28;20242;-63
2023/05/13 09:07:12;;;;;;;4.18;3.40;;;;;;;;;;5082408;28;20199;-63
2023/05/13 09:09:39;;;;;;;3.25;3.05;;;;;;;;;;5082475;28;20476;-63
2023/05/13 09:12:05;;;;;;;2.95;2.72;;;;;;;;;;5081778;28;20242;-63
2023/05/13 09:14:32;;;;;;;4.07;2.97;;;;;;;;;;5082251;28;20225;-63
2023/05/13 09:16:58;;;;;;;4.75;2.90;;;;;;;;;;5082335;28;20200;-63
2023/05/13 09:19:25;;;;;;;3.35;3.05;;;;;;;;;;5082621;28;20197;-63
2023/05/13 09:21:53;;;;;;;5.35;3.35;;;;;;;;;;5082226;28;20250;-63
2023/05/13 09:24:20;;;;;;;4.20;2.92;;;;;;;;;;5082454;28;20200;-63
2023/05/13 09:26:47;;;;;;;3.72;3.42;;;;;;;;;;5082166;28;20228;-63
2023/05/13 09:29:21;;;;;;;3.35;2.78;;;;;;;;;;5082279;28;20196;-63
2023/05/13 09:31:48;;;;;;;4.10;2.90;;;;;;;;;;5082169;28;20200;-63
2023/05/13 09:34:15;;;;;;;2.60;2.50;;;;;;;;;;5082072;28;20262;-63
2023/05/13 09:36:41;;;;;;;2.72;2.63;;;;;;;;;;5082390;28;20196;-63
2023/05/13 09:39:11;;;;;;;4.47;2.70;;;;;;;;;;5082136;28;20196;-63
2023/05/13 09:41:37;;;;;;;3.00;2.80;;;;;;;;;;5081969;28;20189;-63
2023/05/13 09:44:04;;;;;;;3.13;2.75;;;;;;;;;;5082304;28;20208;-64
2023/05/13 09:46:31;;;;;;;2.80;2.50;;;;;;;;;;5082115;28;20435;-63
2023/05/13 09:48:57;;;;;;;3.00;2.42;;;;;;;;;;5082457;28;20427;-64
2023/05/13 09:51:25;;;;;;;3.35;2.30;;;;;;;;;;5081921;28;20227;-63
2023/05/13 09:53:51;;;;;;;3.33;2.40;;;;;;;;;;5082069;28;20249;-63
2023/05/13 09:56:22;;;;;;;2.95;2.75;;;;;;;;;;5081944;28;20218;-63
2023/05/13 09:58:51;;;;;;;3.25;2.70;;;;;;;;;;5082290;28;20196;-63
2023/05/13 10:01:17;;;;;;;2.47;2.40;;;;;;;;;;5081767;28;20200;-63
2023/05/13 10:03:43;;;;;;;3.03;2.75;;;;;;;;;;5082103;28;20442;-63
2023/05/13 10:06:09;;;;;;;2.60;2.50;;;;;;;;;;5081645;28;20204;-63
2023/05/13 10:08:37;;;;;;;2.80;2.70;;;;;;;;;;5081491;28;20396;-63
2023/05/13 10:11:05;;;;;;;5.78;2.58;;;;;;;;;;5081292;28;20203;-63
2023/05/13 10:13:34;;;;;;;2.00;1.90;;;;;;;;;;5081411;28;20220;-63
2023/05/13 10:16:00;;;;;;;2.00;1.90;;;;;;;;;;5081465;28;20196;-63
2023/05/13 10:18:27;;;;;;;2.00;1.90;;;;;;;;;;5081461;28;20227;-63
2023/05/13 10:20:54;;;;;;;1.75;1.65;;;;;;;;;;5081151;28;20196;-63
2023/05/13 10:23:21;;;;;;;2.47;2.00;;;;;;;;;;5082173;28;20192;-63
2023/05/13 10:25:48;;;;;;;2.47;1.80;;;;;;;;;;5085351;28;20200;-63
2023/05/13 10:28:15;;;;;;;1.65;1.63;;;;;;;;;;5084355;28;20225;-63
2023/05/13 10:30:43;;;;;;;2.25;2.15;;;;;;;;;;5084901;28;20488;-63
2023/05/13 10:33:09;;;;;;;2.63;2.42;;;;;;;;;;5084715;28;20246;-63
2023/05/13 10:35:37;;;;;;;2.50;2.40;;;;;;;;;;5084771;28;20242;-63
2023/05/13 10:38:06;;;;;;;2.42;2.33;;;;;;;;;;5084695;28;20234;-63
2023/05/13 10:40:49;;;;;;;2.50;2.33;;;;;;;;;;5084572;28;20235;-63
2023/05/13 10:43:17;;;;;;;2.00;1.90;;;;;;;;;;5084806;28;20196;-63
2023/05/13 10:45:45;;;;;;;2.13;1.92;;;;;;;;;;5084551;28;20197;-63
2023/05/13 10:48:13;;;;;;;2.25;1.60;;;;;;;;;;5084313;28;20200;-61
2023/05/13 10:50:39;;;;;;;1.40;1.40;;;;;;;;;;5070807;28;20236;-61
2023/05/13 10:53:10;;;;;;;2.17;2.00;;;;;;;;;;5077749;28;20266;-61
2023/05/13 10:55:40;;;;;;;4.93;1.77;;;;;;;;;;5073755;28;20209;-61
2023/05/13 10:58:10;;;;;;;2.30;2.20;;;;;;;;;;5069547;28;20532;-61
2023/05/13 11:00:37;;;;;;;1.80;1.70;;;;;;;;;;5073973;28;20383;-60
2023/05/13 11:03:12;;;;;;;1.75;1.75;;;;;;;;;;5075002;28;20295;-60
2023/05/13 11:05:39;;;;;;;3.42;3.22;;;;;;;;;;5079485;28;20208;-61
2023/05/13 11:08:06;;;;;;;3.20;2.13;;;;;;;;;;5077533;28;20204;-60
2023/05/13 11:10:32;;;;;;;2.10;2.00;;;;;;;;;;5061422;28;20405;-60
2023/05/13 11:13:23;;;;;;;1.95;1.85;;;;;;;;;;5061858;28;20201;-61
2023/05/13 11:15:50;;;;;;;2.13;2.03;;;;;;;;;;5047028;28;20209;-61
2023/05/13 11:18:19;;;;;;;2.85;1.98;;;;;;;;;;5062205;28;20441;-61
2023/05/13 11:20:46;;;;;;;1.67;1.60;;;;;;;;;;5071996;28;20219;-61
2023/05/13 11:23:16;;;;;;;1.75;1.67;;;;;;;;;;5081891;28;20236;-61
2023/05/13 11:25:43;;;;;;;1.85;1.75;;;;;;;;;;5081466;28;20422;-61
2023/05/13 11:28:09;;;;;;;1.85;1.75;;;;;;;;;;5081509;28;20232;-61
2023/05/13 11:30:35;;;;;;;1.40;1.40;;;;;;;;;;5081616;28;20681;-61
2023/05/13 11:33:07;;;;;;;1.70;1.70;;;;;;;;;;5081751;28;20466;-61
2023/05/13 11:35:34;;;;;;;1.40;1.40;;;;;;;;;;5080783;28;20208;-61
2023/05/13 11:38:01;;;;;;;1.83;1.83;;;;;;;;;;5081602;28;20238;-61
2023/05/13 11:40:28;;;;;;;1.83;1.70;;;;;;;;;;5081098;28;20211;-61
2023/05/13 11:42:54;;;;;;;1.77;1.30;;;;;;;;;;5081556;28;20445;-62
2023/05/13 11:45:22;;;;;;;2.05;1.30;;;;;;;;;;5081867;28;20358;-63
2023/05/13 11:47:49;;;;;;;1.45;1.45;;;;;;;;;;5081547;28;20549;-61
2023/05/13 11:50:19;;;;;;;1.45;1.45;;;;;;;;;;5081613;28;20391;-61
2023/05/13 11:52:50;;;;;;;1.33;1.33;;;;;;;;;;5081333;28;20499;-61
2023/05/13 11:55:24;;;;;;;2.13;1.50;;;;;;;;;;5081177;28;20240;-64
2023/05/13 11:57:50;;;;;;;1.67;1.20;;;;;;;;;;5078183;28;20459;-61
2023/05/13 12:00:17;;;;;;;2.40;1.27;;;;;;;;;;5080831;28;20224;-61
2023/05/13 12:02:44;;;;;;;1.70;1.70;;;;;;;;;;5081109;28;20243;-61
2023/05/13 12:05:11;;;;;;;1.60;1.50;;;;;;;;;;5081002;28;20205;-61
2023/05/13 12:07:38;;;;;;;1.10;1.10;;;;;;;;;;5080912;28;20208;-61
2023/05/13 12:10:07;;;;;;;1.48;1.48;;;;;;;;;;5081143;28;20440;-61
2023/05/13 12:12:34;;;;;;;1.40;1.40;;;;;;;;;;5080897;28;20208;-61
2023/05/13 12:15:02;;;;;;;1.70;1.60;;;;;;;;;;5080866;28;20258;-61
2023/05/13 12:17:30;;;;;;;1.45;1.45;;;;;;;;;;5073818;28;20451;-60
2023/05/13 12:20:06;;;;;;;2.53;1.50;;;;;;;;;;5079975;28;20277;-60
2023/05/13 12:22:33;;;;;;;1.73;1.73;;;;;;;;;;5064491;28;20258;-60
2023/05/13 12:25:00;;;;;;;1.60;1.60;;;;;;;;;;5060680;28;20205;-61
2023/05/13 12:27:28;;;;;;;2.22;1.67;;;;;;;;;;5060634;28;20437;-60
2023/05/13 12:29:54;;;;;;;1.80;1.80;;;;;;;;;;5060592;28;20527;-60
2023/05/13 12:32:21;;;;;;;1.75;1.75;;;;;;;;;;5060594;28;20208;-60
2023/05/13 12:34:48;;;;;;;1.95;1.88;;;;;;;;;;5060140;28;20221;-63
2023/05/13 12:37:15;;;;;;;1.88;1.88;;;;;;;;;;5060509;28;20224;-63
2023/05/13 12:39:41;;;;;;;2.53;1.80;;;;;;;;;;5060323;28;20200;-60
2023/05/13 12:42:13;;;;;;;1.80;1.80;;;;;;;;;;5060088;28;20251;-63
2023/05/13 12:44:42;;;;;;;1.80;1.80;;;;;;;;;;5060099;28;20205;-60
2023/05/13 12:47:09;;;;;;;1.90;1.90;;;;;;;;;;5071455;28;20250;-60
2023/05/13 12:49:35;;;;;;;2.00;2.00;;;;;;;;;;5080036;28;20215;-61
2023/05/13 12:52:03;;;;;;;2.47;2.05;;;;;;;;;;5080057;28;20431;-61
2023/05/13 12:54:29;;;;;;;1.80;1.80;;;;;;;;;;5080148;28;20242;-61
2023/05/13 12:56:56;;;;;;;2.08;1.77;;;;;;;;;;5068774;28;20204;-61
2023/05/13 12:59:22;;;;;;;1.85;1.75;;;;;;;;;;5080586;28;20204;-60
2023/05/13 13:01:50;;;;;;;1.90;1.80;;;;;;;;;;5079948;28;20249;-61
2023/05/13 13:04:17;;;;;;;1.95;1.85;;;;;;;;;;5066782;28;20209;-60
2023/05/13 13:06:44;;;;;;;2.13;2.08;;;;;;;;;;5059764;28;20280;-63
2023/05/13 13:09:10;;;;;;;1.98;1.98;;;;;;;;;;5059952;28;20235;-61
2023/05/13 13:11:36;;;;;;;1.67;1.67;;;;;;;;;;5059578;28;20282;-61
2023/05/13 13:14:02;;;;;;;1.80;1.80;;;;;;;;;;5059524;28;20232;-60
2023/05/13 13:16:28;;;;;;;1.77;1.77;;;;;;;;;;5066230;28;20204;-60
2023/05/13 13:18:58;;;;;;;1.92;1.90;;;;;;;;;;5079679;28;20294;-61
2023/05/13 13:21:24;;;;;;;1.92;1.83;;;;;;;;;;5079750;28;20554;-61
2023/05/13 13:23:50;;;;;;;1.70;1.70;;;;;;;;;;5079740;28;20450;-61
2023/05/13 13:26:16;;;;;;;2.45;2.25;;;;;;;;;;5079803;28;20253;-62
2023/05/13 13:28:43;;;;;;;2.10;2.00;;;;;;;;;;5079511;28;20593;-63
2023/05/13 13:31:10;;;;;;;2.20;1.98;;;;;;;;;;5077132;28;20250;-61
2023/05/13 13:33:36;;;;;;;2.42;2.40;;;;;;;;;;5073801;28;20276;-61
2023/05/13 13:36:04;;;;;;;2.20;2.08;;;;;;;;;;5080146;28;20508;-61
2023/05/13 13:38:31;;;;;;;2.17;1.80;;;;;;;;;;5079976;28;20508;-61
2023/05/13 13:40:57;;;;;;;1.70;1.60;;;;;;;;;;5080339;28;20449;-61
2023/05/13 13:43:23;;;;;;;2.97;1.90;;;;;;;;;;5074791;28;20208;-61
2023/05/13 13:45:49;;;;;;;1.80;1.70;;;;;;;;;;5079647;28;20208;-61
2023/05/13 13:48:16;;;;;;;2.30;2.20;;;;;;;;;;5079950;28;20274;-60
2023/05/13 13:50:42;;;;;;;2.00;2.00;;;;;;;;;;5079374;28;20527;-61
2023/05/13 13:53:09;;;;;;;2.50;2.40;;;;;;;;;;5079490;28;20446;-61
2023/05/13 13:55:36;;;;;;;2.28;2.17;;;;;;;;;;5079735;28;20235;-61
2023/05/13 13:58:02;;;;;;;2.95;2.78;;;;;;;;;;5069211;28;20271;-61
2023/05/13 14:00:28;;;;;;;2.92;2.83;;;;;;;;;;5075374;28;20573;-61
2023/05/13 14:02:55;;;;;;;2.97;2.88;;;;;;;;;;5081099;28;20208;-61
2023/05/13 14:05:21;;;;;;;2.90;2.70;;;;;;;;;;5065728;28;20205;-61
2023/05/13 14:07:52;;;;;;;2.95;2.85;;;;;;;;;;5060742;28;20200;-61
2023/05/13 14:10:20;;;;;;;3.60;3.40;;;;;;;;;;5060424;28;20208;-61
2023/05/13 14:12:46;;;;;;;3.33;3.13;;;;;;;;;;5060478;28;20205;-61
2023/05/13 14:15:12;;;;;;;2.80;2.65;;;;;;;;;;5069409;28;20227;-63
2023/05/13 14:17:38;;;;;;;3.80;2.20;;;;;;;;;;5084261;28;20212;-62
2023/05/13 14:20:05;;;;;;;2.85;2.65;;;;;;;;;;5073242;28;20259;-62
2023/05/13 14:22:32;;;;;;;2.58;2.47;;;;;;;;;;5064820;28;20217;-62
2023/05/13 14:24:58;;;;;;;2.70;2.60;;;;;;;;;;5064430;28;20243;-62
2023/05/13 14:27:26;;;;;;;3.08;2.70;;;;;;;;;;5064506;28;20241;-62
2023/05/13 14:29:52;;;;;;;2.97;2.88;;;;;;;;;;5074206;28;20247;-62
2023/05/13 14:32:18;;;;;;;4.13;3.15;;;;;;;;;;5084393;28;20208;-62
2023/05/13 14:34:45;;;;;;;3.30;3.10;;;;;;;;;;5084590;28;20220;-62
2023/05/13 14:37:11;;;;;;;4.88;3.30;;;;;;;;;;5080964;28;20501;-62
2023/05/13 14:39:37;;;;;;;4.13;3.30;;;;;;;;;;5072958;28;20228;-62
2023/05/13 14:42:04;;;;;;;3.85;3.45;;;;;;;;;;5063932;28;20424;-62